createdAt,value
2022-10-06T00:01:16.406Z,100496.25
2022-10-06T00:06:18.205Z,100491.47
2022-10-06T00:11:19.689Z,100486.63
2022-10-06T00:16:25.245Z,100491.03
2022-10-06T00:21:26.612Z,100496.47
2022-10-06T00:26:27.981Z,100505.72
2022-10-06T00:31:29.461Z,100502.78
2022-10-06T00:36:31.074Z,100499.19
2022-10-06T00:41:32.705Z,100502.13
2022-10-06T00:46:40.386Z,100502.97
2022-10-06T00:51:47.964Z,100504.06
2022-10-06T00:56:49.369Z,100501.31
2022-10-06T01:01:59.497Z,100488.28
2022-10-06T01:07:01.005Z,100497.06
2022-10-06T01:12:04.028Z,100496.25
2022-10-06T01:17:38.981Z,100500.69
2022-10-06T01:22:43.325Z,100498.81
2022-10-06T01:27:50.552Z,100494.63
2022-10-06T01:32:51.909Z,100502.22
2022-10-06T01:37:54.562Z,100503.03
2022-10-06T01:42:56.320Z,100513.56
2022-10-06T01:47:57.756Z,100523.19
2022-10-06T01:52:59.124Z,100517.94
2022-10-06T01:58:00.498Z,100519.63
2022-10-06T02:03:01.892Z,100529.47
2022-10-06T02:08:03.256Z,100536.38
2022-10-06T02:13:04.988Z,100533.25
2022-10-06T02:18:06.423Z,100539.16
2022-10-06T02:23:07.778Z,100548.38
2022-10-06T02:28:09.221Z,100549.44
2022-10-06T02:33:10.609Z,100555.94
2022-10-06T02:38:12.485Z,100564.97
2022-10-06T02:43:13.873Z,100571.88
2022-10-06T02:48:15.270Z,100571.69
2022-10-06T02:53:16.737Z,100566.84
2022-10-06T02:58:18.093Z,100556.78
2022-10-06T03:03:19.450Z,100553.81
2022-10-06T03:08:20.811Z,100568.34
2022-10-06T03:13:22.174Z,100579.63
2022-10-06T03:18:23.596Z,100597.88
2022-10-06T03:23:25.009Z,100608.78
2022-10-06T03:28:27.052Z,100602.28
2022-10-06T03:33:28.900Z,100611.50
2022-10-06T03:38:32.089Z,100615.94
2022-10-06T03:43:34.073Z,100619.94
2022-10-06T03:48:35.581Z,100628.94
2022-10-06T03:53:36.997Z,100630.22
2022-10-06T03:58:42.517Z,100639.84
2022-10-06T04:03:44.174Z,100647.41
2022-10-06T04:08:46.549Z,100659.97
2022-10-06T04:13:52.078Z,100658.31
2022-10-06T04:18:57.877Z,100663.41
2022-10-06T04:23:59.614Z,100659.00
2022-10-06T04:29:01.088Z,100670.31
2022-10-06T04:34:02.662Z,100674.97
2022-10-06T04:39:04.368Z,100673.47
2022-10-06T04:44:05.754Z,100676.16
2022-10-06T04:49:07.164Z,100683.88
2022-10-06T04:54:08.524Z,100673.78
2022-10-06T04:59:09.996Z,100678.59
2022-10-06T05:04:11.520Z,100706.88
2022-10-06T05:09:15.394Z,100722.34
2022-10-06T05:14:16.757Z,100735.94
2022-10-06T05:19:18.156Z,100739.50
2022-10-06T05:24:22.504Z,100753.56
2022-10-06T05:29:23.877Z,100748.91
2022-10-06T05:34:25.249Z,100752.09
2022-10-06T05:39:26.620Z,100769.03
2022-10-06T05:44:27.982Z,100785.63
2022-10-06T05:49:29.381Z,100785.03
2022-10-06T05:54:30.776Z,100796.13
2022-10-06T05:59:32.177Z,100815.41
2022-10-06T06:04:33.533Z,100827.81
2022-10-06T06:09:34.915Z,100832.88
2022-10-06T06:14:54.592Z,100853.63
2022-10-06T06:19:55.951Z,100855.91
2022-10-06T06:24:57.337Z,100871.47
2022-10-06T06:29:58.874Z,100930.41
2022-10-06T06:35:00.361Z,100968.97
2022-10-06T06:40:01.730Z,100991.41
2022-10-06T06:45:03.182Z,101006.28
2022-10-06T06:50:10.033Z,101024.59
2022-10-06T06:55:11.413Z,101056.94
2022-10-06T07:00:13.058Z,101059.44
2022-10-06T07:05:14.484Z,101086.56
2022-10-06T07:10:15.900Z,101108.84
2022-10-06T07:15:35.870Z,101118.31
2022-10-06T07:20:55.536Z,101127.53
2022-10-06T07:25:56.900Z,101128.59
2022-10-06T07:31:00.464Z,101139.91
2022-10-06T07:36:02.371Z,101146.03
2022-10-06T07:41:20.273Z,101158.00
2022-10-06T07:46:21.999Z,101160.31
2022-10-06T07:51:27.170Z,101158.41
2022-10-06T07:56:28.553Z,101174.56
2022-10-06T08:01:30.230Z,101185.28
2022-10-06T08:06:31.630Z,101198.72
2022-10-06T08:11:33.012Z,101198.09
2022-10-06T08:16:34.447Z,101197.69
2022-10-06T08:21:35.892Z,101203.16
2022-10-06T08:26:38.460Z,101201.47
2022-10-06T08:31:39.865Z,101196.41
2022-10-06T08:36:48.233Z,101222.69
2022-10-06T08:42:03.632Z,101226.66
2022-10-06T08:47:13.347Z,101230.47
2022-10-06T08:52:47.795Z,101238.22
2022-10-06T08:58:06.783Z,101251.06
2022-10-06T09:03:16.600Z,101247.91
2022-10-06T09:08:51.180Z,101261.75
2022-10-06T09:13:55.592Z,101257.75
2022-10-06T09:19:09.563Z,101272.09
2022-10-06T09:24:16.744Z,101272.31
2022-10-06T09:29:18.153Z,101266.38
2022-10-06T09:34:35.964Z,101274.59
2022-10-06T09:39:41.781Z,101274.38
2022-10-06T09:45:02.105Z,101282.78
2022-10-06T09:50:12.494Z,101280.47
2022-10-06T09:55:17.787Z,101298.13
2022-10-06T10:00:32.787Z,101285.91
2022-10-06T10:05:36.078Z,101296.22
2022-10-06T10:10:37.665Z,101301.47
2022-10-06T10:15:52.182Z,101297.25
2022-10-06T10:20:55.707Z,101307.16
2022-10-06T10:26:17.389Z,101310.94
2022-10-06T10:31:42.730Z,101319.34
2022-10-06T10:36:59.622Z,101327.75
2022-10-06T10:42:02.747Z,101314.94
2022-10-06T10:47:14.072Z,101314.09
2022-10-06T10:52:17.469Z,101330.25
2022-10-06T10:57:21.839Z,101327.75
2022-10-06T11:02:23.340Z,101331.53
2022-10-06T11:07:33.512Z,101343.94
2022-10-06T11:12:57.509Z,101342.25
2022-10-06T11:18:04.489Z,101333.63
2022-10-06T11:23:23.892Z,101333.63
2022-10-06T11:28:35.026Z,101330.88
2022-10-06T11:33:41.853Z,101333.19
2022-10-06T11:38:46.896Z,101340.16
2022-10-06T11:44:10.352Z,101339.09
2022-10-06T11:49:29.814Z,101335.72
2022-10-06T11:54:56.474Z,101335.31
2022-10-06T12:00:04.179Z,101343.50
2022-10-06T12:05:47.146Z,101342.66
2022-10-06T12:10:36.089Z,101346.44
2022-10-06T12:22:01.108Z,101339.13
2022-10-06T12:27:26.944Z,101338.66
2022-10-06T12:32:39.541Z,101333.19
2022-10-06T12:37:53.027Z,101328.56
2022-10-06T12:43:13.440Z,101334.03
2022-10-06T12:48:53.377Z,101335.94
2022-10-06T12:54:19.418Z,101333.84
2022-10-06T12:59:34.709Z,101342.47
2022-10-06T13:04:40.796Z,101340.34
2022-10-06T13:09:42.337Z,101336.38
2022-10-06T13:14:43.701Z,101342.03
2022-10-06T13:19:45.061Z,101342.69
2022-10-06T13:24:46.485Z,101352.13
2022-10-06T13:29:48.183Z,101350.69
2022-10-06T13:34:49.541Z,101345.63
2022-10-06T13:39:50.897Z,101346.47
2022-10-06T13:44:57.307Z,101361.41
2022-10-06T13:50:04.663Z,101365.63
2022-10-06T13:55:14.472Z,101370.66
2022-10-06T14:00:16.980Z,101370.22
2022-10-06T14:05:24.413Z,101368.75
2022-10-06T14:10:43.265Z,101365.81
2022-10-06T14:16:04.630Z,101374.63
2022-10-06T14:21:41.625Z,101373.41
2022-10-06T14:26:43.709Z,101367.50
2022-10-06T14:31:45.146Z,101357.59
2022-10-06T14:36:47.828Z,101368.94
2022-10-06T14:41:49.192Z,101368.31
2022-10-06T14:46:50.879Z,101364.72
2022-10-06T14:51:55.860Z,101373.78
2022-10-06T14:56:57.237Z,101372.53
2022-10-06T15:01:58.608Z,101377.38
2022-10-06T15:07:18.288Z,101384.09
2022-10-06T15:12:19.654Z,101373.19
2022-10-06T15:17:22.894Z,101374.03
2022-10-06T15:22:24.260Z,101383.69
2022-10-06T15:27:43.958Z,101383.47
2022-10-06T15:32:45.316Z,101392.53
2022-10-06T15:37:46.676Z,101398.00
2022-10-06T15:42:49.977Z,101400.31
2022-10-06T15:47:52.108Z,101394.22
2022-10-06T15:52:53.474Z,101387.06
2022-10-06T15:57:54.989Z,101396.31
2022-10-06T16:02:56.413Z,101390.00
2022-10-06T16:07:57.801Z,101394.00
2022-10-06T16:12:59.179Z,101391.69
2022-10-06T16:18:00.533Z,101394.41
2022-10-06T16:23:01.901Z,101399.47
2022-10-06T16:28:03.311Z,101404.91
2022-10-06T16:33:04.717Z,101405.53
2022-10-06T16:38:06.073Z,101407.63
2022-10-06T16:43:07.428Z,101405.69
2022-10-06T16:48:08.793Z,101419.34
2022-10-06T16:53:14.689Z,101412.81
2022-10-06T16:58:18.317Z,101419.78
2022-10-06T17:03:19.744Z,101430.25
2022-10-06T17:08:24.205Z,101436.97
2022-10-06T17:13:25.565Z,101441.38
2022-10-06T17:18:26.935Z,101453.97
2022-10-06T17:23:28.641Z,101459.19
2022-10-06T17:28:30.273Z,101459.16
2022-10-06T17:33:34.317Z,101449.50
2022-10-06T17:38:41.212Z,101454.97
2022-10-06T17:43:46.665Z,101451.59
2022-10-06T17:48:49.776Z,101454.09
2022-10-06T17:53:55.999Z,101455.75
2022-10-06T17:58:58.077Z,101448.25
2022-10-06T18:04:04.016Z,101443.59
2022-10-06T18:09:06.164Z,101455.13
2022-10-06T18:14:17.962Z,101451.16
2022-10-06T18:19:25.068Z,101447.38
2022-10-06T18:24:27.524Z,101452.41
2022-10-06T18:29:30.746Z,101442.13
2022-10-06T18:39:53.926Z,101456.16
2022-10-06T18:45:13.997Z,101461.22
2022-10-06T18:50:16.564Z,101460.56
2022-10-06T18:55:17.922Z,101459.13
2022-10-06T19:00:19.415Z,101467.47
2022-10-06T19:05:20.821Z,101463.06
2022-10-06T19:10:22.243Z,101473.13
2022-10-06T19:15:23.625Z,101469.81
2022-10-06T19:20:24.995Z,101474.66
2022-10-06T19:25:26.755Z,101471.75
2022-10-06T19:30:28.144Z,101474.66
2022-10-06T19:35:29.533Z,101485.16
2022-10-06T19:40:30.893Z,101485.16
2022-10-06T19:45:32.250Z,101483.06
2022-10-06T19:50:33.613Z,101488.31
2022-10-06T19:55:34.981Z,101491.44
2022-10-06T20:00:36.552Z,101482.00
2022-10-06T20:05:38.190Z,101497.28
2022-10-06T20:10:39.656Z,101486.19
2022-10-06T20:15:41.542Z,101493.53
2022-10-06T20:20:42.905Z,101496.03
2022-10-06T20:25:44.309Z,101500.25
2022-10-06T20:30:50.043Z,101501.88
2022-10-06T20:35:51.461Z,101495.19
2022-10-06T20:40:52.817Z,101494.34
2022-10-06T20:45:54.221Z,101496.03
2022-10-06T20:50:56.232Z,101502.72
2022-10-06T20:55:59.993Z,101500.78
2022-10-06T21:01:06.110Z,101493.94
2022-10-06T21:06:07.599Z,101490.97
2022-10-06T21:11:09.441Z,101499.34
2022-10-06T21:16:12.521Z,101504.81
2022-10-06T21:21:14.017Z,101491.09
2022-10-06T21:26:16.996Z,101484.22
2022-10-06T21:31:19.638Z,101488.19
2022-10-06T21:36:22.655Z,101484.66
2022-10-06T21:41:29.460Z,101475.19
2022-10-06T21:46:35.360Z,101470.97
2022-10-06T21:51:36.753Z,101478.72
2022-10-06T21:56:38.941Z,101468.25
2022-10-06T22:01:43.440Z,101470.53
2022-10-06T22:06:45.231Z,101471.13
2022-10-06T22:11:46.716Z,101477.38
2022-10-06T22:16:48.160Z,101466.22
2022-10-06T22:21:49.596Z,101469.38
2022-10-06T22:26:51.027Z,101473.75
2022-10-06T22:31:52.691Z,101471.91
2022-10-06T22:36:54.196Z,101467.09
2022-10-06T22:41:55.726Z,101473.88
2022-10-06T22:46:57.224Z,101478.66
2022-10-06T22:51:58.718Z,101464.88
2022-10-06T22:57:00.172Z,101463.63
2022-10-06T23:02:01.628Z,101456.94
2022-10-06T23:07:03.072Z,101445.22
2022-10-06T23:12:04.545Z,101447.94
2022-10-06T23:17:05.981Z,101451.28
2022-10-06T23:22:07.428Z,101451.75
2022-10-06T23:27:08.860Z,101446.06
2022-10-06T23:32:10.313Z,101448.38
2022-10-06T23:37:11.761Z,101454.91
2022-10-06T23:42:13.201Z,101441.91
2022-10-06T23:47:14.634Z,101442.75
2022-10-06T23:52:16.081Z,101449.22
2022-10-06T23:57:17.516Z,101449.91
